EW7152 Weather Reports


Display with metric or nautical units.
time (UTC)temp
F
wind
direction
speed
MPH
gust
MPH
rain 1hr
in
rain 24hr
in
rain mn
in
humidity
%
barometer
mb
20191021030149 66 259 4.0 12.0 0.00 0.00 0.00 23 1024.3
20191021024709 66 155 3.0 14.0 0.00 0.00 0.00 23 1024.6
20191021023154 65 116 5.0 11.0 0.00 0.00 0.00 23 1024.7
20191021021649 65 163 3.0 14.0 0.00 0.00 0.00 23 1024.7
20191021020111 64 141 2.0 13.0 0.00 0.00 0.00 25 1024.8
20191021014608 63 96 2.0 14.0 0.00 0.00 0.00 32 1025.2
20191021013111 63 92 4.0 12.0 0.00 0.00 0.00 32 1025.4
20191021011752 62 90 2.0 10.0 0.00 0.00 0.00 33 1025.6
20191021010036 61 114 6.0 12.0 0.00 0.00 0.00 35 1025.8
20191021004601 60 83 6.0 15.0 0.00 0.00 0.00 34 1026.0
20191021003046 60 82 8.0 12.0 0.00 0.00 0.00 37 1026.2
20191021001602 59 63 6.0 13.0 0.00 0.00 0.00 37 1026.4
20191021000103 58 71 8.0 14.0 0.00 0.00 0.00 41 1026.4
20191020234548 57 94 7.0 13.0 0.00 0.00 0.00 42 1026.5
20191020233025 57 103 5.0 12.0 0.00 0.00 0.00 42 1026.5
20191020231528 56 32 4.0 14.0 0.00 0.00 0.00 48 1026.4
20191020230010 55 13 4.0 11.0 0.00 0.00 0.00 51 1026.4
20191020224511 54 59 5.0 14.0 0.00 0.00 0.00 60 1026.4
20191020223033 54 46 7.0 15.0 0.00 0.00 0.00 61 1026.3
20191020221719 52 82 9.0 15.0 0.00 0.00 0.00 67 1026.2
20191020220125 49 51 5.0 8.0 0.00 0.00 0.00 78 1026.0
20191020214640 47 35 1.0 5.0 0.00 0.00 0.00 84 1025.9
20191020213102 46 32 1.0 7.0 0.00 0.00 0.00 84 1025.8
20191020211644 45 75 2.0 7.0 0.00 0.00 0.00 84 1025.8
20191020210058 43 89 3.0 7.0 0.00 0.00 0.00 84 1025.6
20191020204648 42 76 3.0 7.0 0.00 0.00 0.00 84 1025.4
20191020203154 42 80 3.0 7.0 0.00 0.00 0.00 84 1025.4
20191020201621 41 88 4.0 7.0 0.00 0.00 0.00 84 1025.2
20191020200109 41 83 3.0 6.0 0.00 0.00 0.00 84 1025.1
20191020194624 41 83 4.0 7.0 0.00 0.00 0.00 84 1024.9
20191020193129 40 94 3.0 7.0 0.00 0.00 0.00 84 1024.8
20191020191557 37 73 0.0 2.0 0.00 0.00 0.00 83 1024.7
20191020190140 36 73 0.0 1.0 0.00 0.00 0.00 80 1024.5
20191020184611 35 73 0.0 2.0 0.00 0.00 0.00 76 1024.3
20191020183114 35 73 0.0 0.0 0.00 0.00 0.00 72 1024.2
20191020181610 35 73 0.0 1.0 0.00 0.00 0.00 72 1024.2
20191020180103 35 73 0.0 1.0 0.00 0.00 0.00 71 1024.1
20191020174615 36 73 0.0 1.0 0.00 0.00 0.00 70 1024.0
20191020173042 36 73 0.0 1.0 0.00 0.00 0.00 70 1023.8
20191020171541 36 73 0.0 2.0 0.00 0.00 0.00 70 1023.8
20191020170102 37 73 0.0 0.0 0.00 0.00 0.00 69 1023.8
20191020164538 37 73 0.0 0.0 0.00 0.00 0.00 68 1023.9
20191020163017 38 73 0.0 0.0 0.00 0.00 0.00 67 1023.9
20191020161509 38 73 0.0 0.0 0.00 0.00 0.00 66 1023.8
20191020160010 39 73 0.0 0.0 0.00 0.00 0.00 66 1023.9
20191020154502 40 73 0.0 0.0 0.00 0.00 0.00 66 1023.9
20191020153154 41 73 0.0 0.0 0.00 0.00 0.00 67 1024.1
20191020151850 42 73 0.0 0.0 0.00 0.00 0.00 66 1024.0
20191020150204 42 73 0.0 0.0 0.00 0.00 0.00 65 1024.2
20191020144703 43 73 0.0 0.0 0.00 0.00 0.00 66 1024.3
20191020143142 44 73 0.0 1.0 0.00 0.00 0.00 67 1024.3
20191020141604 44 73 0.0 1.0 0.00 0.00 0.00 66 1024.5
20191020140141 45 73 1.0 4.0 0.00 0.00 0.00 67 1024.5
20191020134643 45 73 2.0 3.0 0.00 0.00 0.00 66 1024.7
20191020133106 46 73 1.0 3.0 0.00 0.00 0.00 65 1024.6
20191020131636 47 73 1.0 4.0 0.00 0.00 0.00 64 1024.5
20191020130110 47 70 2.0 8.0 0.00 0.00 0.00 64 1024.5
20191020124639 48 89 4.0 9.0 0.00 0.00 0.00 64 1024.7
20191020123059 48 83 4.0 8.0 0.00 0.00 0.00 64 1024.5
20191020121618 48 84 5.0 9.0 0.00 0.00 0.00 63 1024.4
20191020120056 49 86 6.0 11.0 0.00 0.00 0.00 62 1024.3
20191020114617 49 90 7.0 12.0 0.00 0.00 0.00 62 1024.3
20191020113111 50 119 6.0 9.0 0.00 0.00 0.00 61 1024.3
20191020111549 50 90 4.0 7.0 0.00 0.00 0.00 61 1024.1
20191020110045 50 71 3.0 7.0 0.00 0.00 0.00 59 1024.0
20191020104604 51 65 4.0 9.0 0.00 0.00 0.00 59 1024.0
20191020103115 51 84 5.0 10.0 0.00 0.00 0.00 58 1023.9
20191020101553 52 94 6.0 11.0 0.00 0.00 0.00 57 1023.7
20191020100046 52 85 7.0 12.0 0.00 0.00 0.00 57 1023.4
20191020094553 53 84 5.0 13.0 0.00 0.00 0.00 56 1023.2
20191020093051 53 84 7.0 12.0 0.00 0.00 0.00 55 1022.9
20191020091525 54 80 4.0 9.0 0.00 0.00 0.00 54 1022.5
20191020090055 55 64 5.0 12.0 0.00 0.00 0.00 53 1022.0
20191020084534 55 61 8.0 12.0 0.00 0.00 0.00 52 1021.6
20191020083014 56 80 7.0 10.0 0.00 0.00 0.00 50 1021.2
20191020081509 57 59 3.0 10.0 0.00 0.00 0.00 48 1020.8
20191020080015 57 82 6.0 12.0 0.00 0.00 0.00 47 1020.4
20191020074508 58 77 7.0 15.0 0.00 0.00 0.00 45 1020.0
20191020073000 60 75 10.0 17.0 0.00 0.00 0.00 41 1019.6
20191020071650 62 82 12.0 18.0 0.00 0.00 0.00 37 1019.5
20191020070259 66 92 8.0 13.0 0.00 0.00 0.00 25 1019.0
20191020064742 68 90 3.0 10.0 0.00 0.00 0.00 14 1018.7
20191020063233 68 130 1.0 4.0 0.00 0.00 0.00 13 1018.4
20191020061649 68 357 1.0 8.0 0.00 0.00 0.00 14 1018.4
20191020060153 68 115 4.0 8.0 0.00 0.00 0.00 14 1018.4
20191020054647 66 33 3.0 8.0 0.00 0.00 0.00 15 1018.3
20191020053136 66 111 6.0 9.0 0.00 0.00 0.00 15 1018.2
20191020051708 66 95 4.0 10.0 0.00 0.00 0.00 15 1018.2
20191020050257 67 116 6.0 12.0 0.00 0.00 0.00 15 1018.2
20191020044641 68 229 1.0 10.0 0.00 0.00 0.00 16 1018.2
20191020043156 67 321 4.0 8.0 0.00 0.00 0.00 16 1018.4
20191020041614 66 111 6.0 13.0 0.00 0.00 0.00 17 1018.4
20191020040300 68 142 4.0 10.0 0.00 0.00 0.00 16 1018.4
20191020034559 68 242 4.0 10.0 0.00 0.00 0.00 16 1018.5
20191020033207 66 113 5.0 13.0 0.00 0.00 0.00 16 1018.5
20191020031647 66 288 3.0 10.0 0.00 0.00 0.00 18 1018.7